Nearby METAR Reports

 

EGVN - Brize Norton Raf, United Kingdom
Distance from station: SSE 20mi, 32km
Updated: 23/09/2018 22:50
Clear
Clear
 Wind from NNW
Wind: NNW 9 mph , 15 km/h
Temperature: 8°C
Wind Chill: 5°C
Dew Point: 5°C
Humidity: 82%
Barometer: 1031 hPa
Summary: Clear
Visibility: greater than 7 miles , 10 km
2018/09/23 21:50 EGVN 232150Z 33008KT CAVOK 08/05 Q1031 NOSIG
EGTK - Oxford, United Kingdom
Distance from station: SE 22mi, 35km
Updated: 23/09/2018 22:20
NOT Current
Clear
Clear
 Wind from WNW
Wind: WNW 8 mph , 13 km/h
Temperature: 8°C
Wind Chill: 6°C
Dew Point: 5°C
Humidity: 82%
Barometer: 1030 hPa
Summary: Clear
Visibility: greater than 7 miles , 10 km
2018/09/23 21:20 EGTK 232120Z 30007KT CAVOK 08/05 Q1030
 
EGBJ - Staverton (priva, United Kingdom
Distance from station: WSW 23mi, 36km
Updated: 23/09/2018 18:50
NOT Current
Few Clouds
Few Clouds
 Wind from NW
Wind: NW 3 mph , 6 km/h
Temperature: 11°C
Dew Point: 6°C
Humidity: 72%
Barometer: 1027 hPa
Clouds: Few Clouds
Visibility: 6 miles , 10 km
Cloud details: Few Clouds 1067 m
Few Clouds 1219 m
2018/09/23 17:50 EGBJ 231750Z 32003KT 9999 FEW035 FEW040CB 11/06 Q1027
EGVA - Fairford Raf, United Kingdom
Distance from station: S 27mi, 43km
Updated: 23/09/2018 22:56

 Wind from WNW
Wind: WNW 5 mph , 7 km/h
Visibility: 6 miles , 9 km
2018/09/23 21:56 EGVA 232156Z AUTO 30004KT 9000 M CLR 05/03 A3045 RMK AO2 SLP317 T00530030 $
 
EGBB - Birmingham Airpo, United Kingdom
Distance from station: N 29mi, 46km
Updated: 23/09/2018 23:20
Clear
Clear
 Wind from NW
Wind: NW 6 mph , 9 km/h
Temperature: 9°C
Wind Chill: 7°C
Dew Point: 6°C
Humidity: 82%
Barometer: 1031 hPa
Summary: Clear
Visibility: greater than 7 miles , 10 km
2018/09/23 22:20 EGBB 232220Z 31005KT CAVOK 09/06 Q1031
EGUB - Benson Raf, United Kingdom
Distance from station: SE 40mi, 65km
Updated: 23/09/2018 22:50
Clear
Clear
 Wind from SE
Wind: SE 1 mph , 2 km/h
Temperature: 3°C
Dew Point: 3°C
Humidity: 100%
Barometer: 1031 hPa
Clouds: Clear
Visibility: 6 miles , 10 km
2018/09/23 21:50 EGUB 232150Z AUTO 14001KT 9999 // NCD 03/03 Q1031
 
EGTC - Cranfield, United Kingdom
Distance from station: E 46mi, 74km
Updated: 23/09/2018 17:20
NOT Current
Clear
Clear
 Wind from NW
Wind: NW 12 mph , 19 km/h
Temperature: 14°C
Dew Point: 4°C
Humidity: 51%
Barometer: 1022 hPa
Summary: Clear
Visibility: greater than 7 miles , 10 km
2018/09/23 16:20 EGTC 231620Z 31010KT 260V350 CAVOK 14/04 Q1022
EGWC - Cosford Raf, United Kingdom
Distance from station: NNW 46mi, 75km
Updated: 23/09/2018 12:50
NOT Current
Nearby showers, Partly cloudy
Nearby showers, Partly cloudy
 Wind from NW
Wind: NW 15 mph , 24 km/h
Temperature: 12°C
Dew Point: 6°C
Humidity: 67%
Barometer: 1020 hPa
Summary: Nearby Showers
Clouds: Partly cloudy
Visibility: 6 miles , 10 km
Cloud details: Few Clouds 610 m
Partly cloudy 914 m
2018/09/23 11:50 EGWC 231150Z 31013KT 9999 VCSH FEW020 SCT030 12/06 Q1020 BLU